Hales Eddy, New York
Current Conditions -  °F | °C
As of 2:35 PM on Friday 28 Nov 2014 (Local Time) from KMSV Reporting Station
Overcast Overcast  
Wind Chill: 15°   Ceiling: 3800
Heat Index: 25°   Visibility: 10mi
Dew Point: 12°   Wind: 10mph
Humidity: 59%   Direction: 310°NW
Pressure: 30.13"   Gusts: 18mph
Location:  41.9099°N, 75.1815°W
Report Text: KMSV 281935Z AUTO 31009G16KT 10SM OVC038 M04/M11 A3013 RMK AO1
Loading
Personal Weather Stations






























Interactive Weather Map New forecast layout! Learn more

10-Day Weather Forecast

Advertisements
Track Severe Weather on mobile